createdAt,value
2023-03-15T00:02:22.537Z,89.85
2023-03-15T00:04:52.590Z,89.86
2023-03-15T00:07:25.932Z,90.00
2023-03-15T00:09:55.071Z,89.99
2023-03-15T00:12:23.330Z,90.15
2023-03-15T00:14:51.917Z,90.18
2023-03-15T00:17:20.187Z,89.90
2023-03-15T00:19:49.174Z,89.95
2023-03-15T00:22:17.350Z,89.92
2023-03-15T00:24:45.726Z,89.57
2023-03-15T00:27:14.105Z,89.81
2023-03-15T00:29:42.277Z,89.58
2023-03-15T00:32:11.063Z,89.89
2023-03-15T00:34:41.078Z,89.78
2023-03-15T00:37:09.251Z,89.85
2023-03-15T00:39:39.888Z,89.75
2023-03-15T00:42:09.838Z,89.69
2023-03-15T00:44:37.974Z,89.46
2023-03-15T00:47:06.245Z,89.35
2023-03-15T00:49:34.522Z,89.35
2023-03-15T00:52:04.019Z,89.49
2023-03-15T00:54:33.720Z,89.57
2023-03-15T00:57:02.107Z,89.23
2023-03-15T00:59:35.106Z,89.41
2023-03-15T01:02:04.632Z,89.15
2023-03-15T01:04:32.975Z,89.21
2023-03-15T01:07:01.142Z,89.05
2023-03-15T01:09:31.668Z,89.07
2023-03-15T01:12:00.147Z,89.03
2023-03-15T01:14:28.525Z,89.29
2023-03-15T01:16:56.701Z,89.21
2023-03-15T01:19:25.071Z,89.22
2023-03-15T01:21:54.682Z,89.14
2023-03-15T01:24:22.956Z,88.99
2023-03-15T01:26:51.851Z,88.88
2023-03-15T01:29:20.838Z,89.06
2023-03-15T01:31:49.069Z,88.96
2023-03-15T01:34:18.004Z,88.92
2023-03-15T01:36:46.168Z,89.19
2023-03-15T01:39:14.961Z,89.25
2023-03-15T01:41:45.588Z,89.02
2023-03-15T01:44:18.477Z,89.19
2023-03-15T01:46:47.929Z,89.19
2023-03-15T01:49:32.014Z,89.01
2023-03-15T01:52:09.917Z,89.08
2023-03-15T01:54:56.197Z,88.92
2023-03-15T01:57:28.893Z,89.08
2023-03-15T02:00:08.033Z,89.25
2023-03-15T02:02:46.620Z,89.36
2023-03-15T02:05:22.489Z,89.18
2023-03-15T02:07:51.174Z,89.05
2023-03-15T02:10:26.001Z,89.02
2023-03-15T02:12:55.621Z,88.87
2023-03-15T02:15:23.987Z,88.73
2023-03-15T02:17:52.263Z,88.73
2023-03-15T02:21:02.010Z,88.66
2023-03-15T02:23:32.122Z,89.03
2023-03-15T02:26:09.619Z,88.80
2023-03-15T02:28:38.214Z,88.95
2023-03-15T02:31:06.574Z,88.87
2023-03-15T02:33:43.682Z,88.72
2023-03-15T02:36:23.900Z,88.67
2023-03-15T02:38:53.210Z,88.48
2023-03-15T02:41:27.014Z,88.64
2023-03-15T02:43:59.795Z,88.77
2023-03-15T02:46:28.380Z,88.61
2023-03-15T02:48:57.067Z,88.84
2023-03-15T02:51:28.825Z,88.77
2023-03-15T02:53:58.527Z,88.54
2023-03-15T02:56:27.109Z,88.41
2023-03-15T02:58:55.284Z,88.47
2023-03-15T03:01:23.938Z,88.47
2023-03-15T03:03:52.550Z,88.36
2023-03-15T03:06:21.545Z,88.32
2023-03-15T03:08:49.917Z,88.53
2023-03-15T03:11:19.831Z,88.50
2023-03-15T03:13:48.219Z,88.46
2023-03-15T03:16:16.432Z,88.42
2023-03-15T03:18:44.864Z,88.13
2023-03-15T03:21:14.976Z,88.08
2023-03-15T03:23:46.456Z,87.99
2023-03-15T03:26:17.163Z,88.10
2023-03-15T03:28:47.804Z,88.01
2023-03-15T03:31:21.638Z,88.19
2023-03-15T03:33:50.475Z,88.21
2023-03-15T03:36:19.060Z,88.05
2023-03-15T03:38:47.544Z,88.15
2023-03-15T03:41:16.228Z,88.17
2023-03-15T03:43:44.800Z,88.12
2023-03-15T03:46:13.248Z,87.88
2023-03-15T03:48:45.650Z,87.88
2023-03-15T03:51:13.823Z,88.03
2023-03-15T03:53:42.103Z,87.88
2023-03-15T03:56:10.988Z,87.94
2023-03-15T03:58:39.465Z,88.12
2023-03-15T04:01:18.597Z,87.90
2023-03-15T04:03:51.480Z,87.98
2023-03-15T04:06:23.337Z,87.90
2023-03-15T04:08:51.720Z,87.80
2023-03-15T04:11:42.806Z,87.87
2023-03-15T04:14:13.040Z,87.74
2023-03-15T04:16:43.159Z,87.76
2023-03-15T04:19:13.378Z,87.86
2023-03-15T04:21:47.680Z,87.83
2023-03-15T04:24:22.909Z,87.90
2023-03-15T04:27:05.628Z,87.95
2023-03-15T04:29:53.992Z,88.05
2023-03-15T04:32:48.400Z,88.00
2023-03-15T04:35:22.801Z,87.85
2023-03-15T04:38:11.356Z,88.00
2023-03-15T04:40:58.469Z,87.89
2023-03-15T04:43:37.812Z,87.76
2023-03-15T04:46:41.330Z,87.84
2023-03-15T04:49:26.475Z,87.96
2023-03-15T04:52:17.793Z,87.95
2023-03-15T04:55:15.261Z,87.97
2023-03-15T04:58:00.011Z,88.13
2023-03-15T05:00:54.468Z,88.36
2023-03-15T05:03:41.408Z,88.19
2023-03-15T05:06:18.801Z,88.12
2023-03-15T05:09:07.755Z,88.15
2023-03-15T05:11:52.934Z,87.98
2023-03-15T05:14:52.181Z,87.65
2023-03-15T05:17:30.955Z,87.57
2023-03-15T05:20:15.069Z,87.66
2023-03-15T05:22:53.308Z,87.60
2023-03-15T05:25:40.422Z,87.78
2023-03-15T05:28:45.475Z,87.77
2023-03-15T05:31:22.804Z,87.68
2023-03-15T05:34:12.305Z,87.77
2023-03-15T05:36:59.840Z,87.57
2023-03-15T05:40:08.196Z,87.63
2023-03-15T05:43:00.105Z,87.57
2023-03-15T05:45:41.187Z,87.51
2023-03-15T05:48:25.818Z,87.57
2023-03-15T05:51:10.784Z,87.42
2023-03-15T05:53:57.792Z,87.58
2023-03-15T05:56:54.225Z,87.33
2023-03-15T05:59:34.256Z,87.45
2023-03-15T06:02:34.702Z,87.45
2023-03-15T06:05:14.651Z,87.65
2023-03-15T06:07:42.846Z,87.40
2023-03-15T06:10:12.120Z,87.55
2023-03-15T06:12:40.591Z,87.26
2023-03-15T06:15:09.288Z,87.33
2023-03-15T06:17:37.459Z,87.11
2023-03-15T06:20:06.345Z,87.20
2023-03-15T06:22:35.542Z,87.01
2023-03-15T06:25:10.264Z,87.06
2023-03-15T06:27:38.937Z,87.08
2023-03-15T06:30:08.579Z,87.03
2023-03-15T06:32:36.788Z,87.02
2023-03-15T06:35:05.928Z,87.01
2023-03-15T06:37:36.150Z,86.78
2023-03-15T06:40:09.305Z,86.73
2023-03-15T06:42:38.442Z,86.50
2023-03-15T06:45:08.656Z,86.42
2023-03-15T06:47:37.335Z,86.54
2023-03-15T06:50:06.533Z,86.39
2023-03-15T06:52:34.604Z,86.41
2023-03-15T06:55:02.977Z,86.21
2023-03-15T06:57:31.255Z,86.20
2023-03-15T06:59:59.321Z,85.99
2023-03-15T07:02:27.527Z,85.97
2023-03-15T07:04:55.975Z,85.81
2023-03-15T07:07:24.148Z,85.92
2023-03-15T07:09:54.282Z,85.73
2023-03-15T07:12:23.464Z,85.73
2023-03-15T07:14:51.643Z,85.71
2023-03-15T07:17:19.807Z,85.63
2023-03-15T07:19:56.344Z,85.66
2023-03-15T07:22:24.987Z,85.51
2023-03-15T07:24:53.132Z,85.59
2023-03-15T07:27:21.310Z,85.45
2023-03-15T07:29:49.477Z,85.62
2023-03-15T07:32:18.311Z,85.72
2023-03-15T07:34:46.540Z,85.30
2023-03-15T07:37:14.814Z,85.46
2023-03-15T07:39:43.398Z,85.46
2023-03-15T07:42:12.062Z,85.35
2023-03-15T07:44:42.297Z,85.37
2023-03-15T07:47:11.188Z,85.38
2023-03-15T07:49:39.356Z,85.27
2023-03-15T07:52:08.554Z,85.59
2023-03-15T07:54:36.928Z,85.67
2023-03-15T07:57:05.409Z,85.51
2023-03-15T07:59:33.890Z,85.53
2023-03-15T08:02:03.191Z,85.42
2023-03-15T08:04:31.772Z,85.28
2023-03-15T08:07:00.052Z,84.95
2023-03-15T08:09:28.316Z,85.05
2023-03-15T08:11:56.492Z,85.24
2023-03-15T08:14:25.071Z,84.80
2023-03-15T08:16:53.249Z,84.79
2023-03-15T08:19:22.373Z,84.56
2023-03-15T08:21:54.044Z,84.47
2023-03-15T08:24:22.266Z,84.40
2023-03-15T08:26:51.472Z,84.09
2023-03-15T08:29:19.635Z,83.59
2023-03-15T08:31:47.823Z,83.58
2023-03-15T08:34:16.505Z,83.31
2023-03-15T08:36:47.700Z,83.20
2023-03-15T08:39:16.334Z,82.80
2023-03-15T08:41:45.723Z,82.60
2023-03-15T08:44:14.113Z,82.20
2023-03-15T08:46:42.415Z,82.22
2023-03-15T08:49:10.652Z,82.44
2023-03-15T08:51:38.823Z,82.89
2023-03-15T08:54:07.710Z,82.40
2023-03-15T08:56:35.830Z,81.94
2023-03-15T08:59:04.059Z,81.69
2023-03-15T09:01:32.221Z,81.57
2023-03-15T09:04:01.431Z,81.04
2023-03-15T09:06:29.696Z,80.86
2023-03-15T09:08:57.862Z,80.74
2023-03-15T09:11:26.136Z,80.73
2023-03-15T09:13:54.206Z,80.26
2023-03-15T09:16:22.438Z,79.69
2023-03-15T09:18:50.866Z,79.59
2023-03-15T09:21:19.138Z,79.25
2023-03-15T09:23:47.306Z,79.11
2023-03-15T09:26:17.017Z,78.48
2023-03-15T09:28:45.290Z,78.38
2023-03-15T09:31:13.600Z,77.65
2023-03-15T09:33:41.944Z,77.70
2023-03-15T09:36:10.119Z,77.67
2023-03-15T09:38:38.496Z,77.60
2023-03-15T09:41:06.669Z,76.88
2023-03-15T09:43:57.122Z,76.66
2023-03-15T09:46:35.851Z,76.47
2023-03-15T09:49:15.328Z,75.92
2023-03-15T09:51:58.217Z,75.53
2023-03-15T09:54:36.524Z,75.15
2023-03-15T09:57:32.042Z,74.71
2023-03-15T10:00:01.598Z,74.72
2023-03-15T10:02:31.068Z,74.34
2023-03-15T10:05:06.101Z,74.44
2023-03-15T10:07:35.834Z,73.89
2023-03-15T10:10:09.487Z,73.40
2023-03-15T10:12:42.191Z,72.73
2023-03-15T10:15:16.198Z,72.54
2023-03-15T10:17:59.726Z,72.66
2023-03-15T10:20:41.808Z,72.55
2023-03-15T10:23:18.914Z,71.33
2023-03-15T10:25:49.744Z,70.91
2023-03-15T10:28:28.800Z,69.39
2023-03-15T10:31:00.452Z,68.54
2023-03-15T10:33:34.555Z,68.57
2023-03-15T10:36:12.651Z,68.27
2023-03-15T10:38:42.151Z,66.84
2023-03-15T10:41:15.238Z,66.83
2023-03-15T10:43:57.326Z,66.55
2023-03-15T10:46:25.527Z,66.43
2023-03-15T10:49:00.682Z,67.13
2023-03-15T10:51:33.922Z,67.83
2023-03-15T10:54:24.018Z,67.99
2023-03-15T10:57:00.118Z,67.47
2023-03-15T10:59:31.108Z,67.35
2023-03-15T11:02:25.695Z,66.75
2023-03-15T11:05:12.518Z,66.64
2023-03-15T11:07:57.584Z,66.73
2023-03-15T11:10:28.182Z,66.19
2023-03-15T11:13:11.428Z,65.76
2023-03-15T11:15:41.548Z,64.37
2023-03-15T11:18:18.420Z,63.21
2023-03-15T11:20:46.904Z,62.79
2023-03-15T11:23:18.845Z,63.30
2023-03-15T11:25:47.040Z,62.20
2023-03-15T11:28:27.599Z,62.53
2023-03-15T11:30:59.941Z,62.94
2023-03-15T11:33:48.606Z,63.34
2023-03-15T11:36:20.512Z,63.01
2023-03-15T11:38:48.968Z,63.01
2023-03-15T11:41:23.245Z,63.14
2023-03-15T11:44:03.075Z,63.79
2023-03-15T11:46:42.968Z,64.33
2023-03-15T11:49:24.249Z,64.65
2023-03-15T11:51:56.189Z,64.96
2023-03-15T11:54:29.273Z,64.43
2023-03-15T11:57:03.505Z,63.03
2023-03-15T11:59:39.263Z,62.53
2023-03-15T12:02:10.634Z,62.54
2023-03-15T12:04:42.876Z,63.13
2023-03-15T12:07:20.266Z,63.94
2023-03-15T12:09:49.254Z,63.54
2023-03-15T12:12:26.242Z,63.70
2023-03-15T12:15:19.438Z,63.91
2023-03-15T12:18:00.604Z,63.45
2023-03-15T12:20:39.669Z,63.16
2023-03-15T12:23:17.189Z,63.27
2023-03-15T12:26:03.812Z,63.21
2023-03-15T12:28:36.163Z,62.67
2023-03-15T12:31:13.319Z,62.96
2023-03-15T12:33:57.871Z,63.25
2023-03-15T12:36:36.112Z,63.31
2023-03-15T12:39:16.674Z,63.34
2023-03-15T12:41:46.872Z,63.65
2023-03-15T12:44:27.043Z,64.00
2023-03-15T12:46:56.775Z,64.52
2023-03-15T12:49:24.929Z,63.86
2023-03-15T12:52:17.882Z,63.45
2023-03-15T12:54:52.363Z,63.95
2023-03-15T12:57:30.077Z,63.96
2023-03-15T13:00:15.340Z,64.04
2023-03-15T13:02:53.055Z,63.94
2023-03-15T13:05:30.429Z,63.63
2023-03-15T13:08:24.729Z,63.44
2023-03-15T13:11:12.066Z,63.93
2023-03-15T13:14:08.282Z,63.93
2023-03-15T13:16:51.874Z,64.26
2023-03-15T13:19:27.566Z,63.80
2023-03-15T13:22:14.478Z,63.33
2023-03-15T13:25:10.086Z,62.76
2023-03-15T13:27:57.309Z,61.71
2023-03-15T13:30:30.855Z,60.90
2023-03-15T13:33:28.879Z,59.93
2023-03-15T13:36:02.411Z,59.90
2023-03-15T13:38:32.801Z,59.82
2023-03-15T13:41:03.880Z,59.66
2023-03-15T13:43:37.643Z,59.69
2023-03-15T13:46:06.206Z,59.88
2023-03-15T13:48:37.164Z,59.77
2023-03-15T13:51:09.621Z,59.96
2023-03-15T13:53:49.588Z,59.65
2023-03-15T13:56:21.716Z,60.04
2023-03-15T13:58:50.335Z,59.62
2023-03-15T14:01:18.948Z,59.92
2023-03-15T14:03:49.837Z,60.00
2023-03-15T14:06:23.065Z,59.75
2023-03-15T14:08:54.874Z,59.44
2023-03-15T14:11:25.942Z,59.49
2023-03-15T14:14:00.641Z,59.22
2023-03-15T14:16:53.610Z,59.50
2023-03-15T14:19:31.625Z,59.14
2023-03-15T14:22:05.547Z,59.16
2023-03-15T14:24:39.031Z,59.35
2023-03-15T14:27:22.181Z,59.51
2023-03-15T14:29:58.420Z,59.77
2023-03-15T14:32:29.058Z,59.70
2023-03-15T14:35:19.033Z,59.78
2023-03-15T14:37:47.608Z,59.89
2023-03-15T14:40:29.810Z,59.84
2023-03-15T14:42:57.981Z,60.45
2023-03-15T14:45:27.630Z,61.24
2023-03-15T14:48:01.922Z,61.00
2023-03-15T14:50:34.796Z,59.95
2023-03-15T14:53:03.674Z,59.57
2023-03-15T14:55:35.073Z,59.26
2023-03-15T14:58:14.971Z,58.74
2023-03-15T15:00:45.121Z,58.31
2023-03-15T15:03:31.589Z,58.07
2023-03-15T15:06:01.196Z,58.50
2023-03-15T15:08:31.729Z,58.41
2023-03-15T15:11:00.312Z,58.51
2023-03-15T15:13:30.599Z,58.75
2023-03-15T15:15:58.812Z,59.01
2023-03-15T15:18:29.528Z,59.12
2023-03-15T15:21:00.384Z,59.42
2023-03-15T15:23:39.586Z,59.78
2023-03-15T15:26:28.973Z,59.85
2023-03-15T15:28:58.076Z,60.40
2023-03-15T15:31:28.445Z,60.57
2023-03-15T15:33:57.182Z,59.45
2023-03-15T15:36:42.966Z,59.30
2023-03-15T15:39:18.802Z,59.39
2023-03-15T15:41:46.977Z,60.13
2023-03-15T15:44:20.474Z,60.37
2023-03-15T15:46:48.644Z,60.76
2023-03-15T15:49:17.000Z,60.66
2023-03-15T15:51:47.041Z,60.92
2023-03-15T15:54:20.511Z,61.36
2023-03-15T15:56:51.475Z,61.44
2023-03-15T15:59:20.705Z,61.57
2023-03-15T16:02:00.658Z,62.16
2023-03-15T16:04:31.145Z,62.10
2023-03-15T16:07:01.997Z,62.53
2023-03-15T16:09:32.400Z,62.61
2023-03-15T16:12:00.577Z,63.18
2023-03-15T16:14:28.861Z,63.29
2023-03-15T16:16:57.018Z,63.56
2023-03-15T16:19:25.189Z,63.61
2023-03-15T16:21:54.693Z,64.34
2023-03-15T16:24:35.990Z,64.47
2023-03-15T16:27:06.949Z,64.98
2023-03-15T16:29:39.088Z,65.13
2023-03-15T16:32:17.945Z,65.28
2023-03-15T16:34:52.335Z,65.76
2023-03-15T16:37:24.900Z,66.22
2023-03-15T16:39:55.970Z,66.51
2023-03-15T16:42:25.859Z,66.72
2023-03-15T16:44:54.121Z,66.93
2023-03-15T16:47:22.307Z,67.00
2023-03-15T16:49:50.780Z,67.13
2023-03-15T16:52:18.943Z,67.53
2023-03-15T16:54:48.848Z,67.49
2023-03-15T16:57:22.037Z,67.80
2023-03-15T16:59:51.062Z,67.95
2023-03-15T17:02:25.775Z,68.20
2023-03-15T17:04:54.152Z,68.45
2023-03-15T17:07:27.952Z,68.63
2023-03-15T17:09:56.218Z,68.85
2023-03-15T17:12:28.490Z,69.00
2023-03-15T17:14:58.930Z,69.49
2023-03-15T17:17:28.671Z,69.66
2023-03-15T17:19:57.728Z,69.85
2023-03-15T17:22:26.217Z,69.99
2023-03-15T17:24:54.574Z,70.16
2023-03-15T17:27:33.097Z,70.35
2023-03-15T17:30:01.548Z,70.29
2023-03-15T17:32:29.769Z,70.37
2023-03-15T17:34:59.228Z,70.80
2023-03-15T17:37:35.836Z,71.19
2023-03-15T17:40:12.572Z,71.24
2023-03-15T17:42:41.170Z,71.64
2023-03-15T17:45:18.247Z,71.78
2023-03-15T17:47:47.725Z,71.93
2023-03-15T17:50:17.111Z,72.39
2023-03-15T17:52:46.864Z,71.98
2023-03-15T17:55:16.965Z,72.45
2023-03-15T17:57:54.116Z,72.36
2023-03-15T18:00:25.053Z,72.69
2023-03-15T18:02:56.640Z,72.60
2023-03-15T18:05:26.894Z,73.12
2023-03-15T18:08:00.057Z,72.94
2023-03-15T18:10:33.771Z,73.43
2023-03-15T18:13:02.594Z,73.32
2023-03-15T18:15:30.825Z,73.43
2023-03-15T18:17:58.890Z,73.55
2023-03-15T18:20:28.194Z,73.68
2023-03-15T18:22:56.467Z,73.75
2023-03-15T18:25:28.534Z,73.83
2023-03-15T18:27:56.711Z,73.96
2023-03-15T18:30:27.433Z,74.45
2023-03-15T18:32:55.965Z,74.30
2023-03-15T18:35:27.423Z,74.53
2023-03-15T18:37:57.590Z,74.55
2023-03-15T18:40:29.383Z,74.74
2023-03-15T18:42:58.336Z,74.44
2023-03-15T18:45:30.088Z,74.49
2023-03-15T18:48:02.221Z,74.40
2023-03-15T18:50:30.942Z,74.66
2023-03-15T18:52:59.432Z,74.61
2023-03-15T18:55:27.586Z,75.01
2023-03-15T18:57:55.972Z,75.27
2023-03-15T19:00:27.616Z,75.04
2023-03-15T19:02:58.831Z,75.38
2023-03-15T19:05:28.368Z,75.51
2023-03-15T19:07:56.945Z,75.16
2023-03-15T19:10:26.058Z,75.55
2023-03-15T19:12:54.632Z,75.52
2023-03-15T19:15:23.656Z,75.19
2023-03-15T19:17:56.739Z,75.41
2023-03-15T19:20:25.083Z,75.10
2023-03-15T19:22:53.396Z,75.31
2023-03-15T19:25:21.830Z,75.30
2023-03-15T19:27:50.013Z,75.34
2023-03-15T19:30:21.306Z,75.81
2023-03-15T19:32:50.451Z,76.06
2023-03-15T19:35:20.251Z,76.07
2023-03-15T19:37:49.145Z,76.11
2023-03-15T19:40:18.659Z,76.13
2023-03-15T19:42:48.833Z,75.95
2023-03-15T19:45:18.060Z,75.90
2023-03-15T19:47:47.210Z,75.87
2023-03-15T19:50:16.354Z,75.89
2023-03-15T19:52:47.705Z,76.06
2023-03-15T19:55:18.159Z,76.31
2023-03-15T19:57:46.724Z,76.66
2023-03-15T20:00:16.464Z,76.80
2023-03-15T20:02:45.305Z,77.08
2023-03-15T20:05:16.958Z,77.18
2023-03-15T20:07:46.366Z,77.14
2023-03-15T20:10:14.962Z,77.21
2023-03-15T20:12:43.215Z,77.18
2023-03-15T20:15:13.214Z,77.30
2023-03-15T20:17:42.133Z,77.37
2023-03-15T20:20:11.588Z,77.49
2023-03-15T20:22:41.613Z,77.21
2023-03-15T20:25:18.200Z,77.28
2023-03-15T20:27:46.699Z,77.37
2023-03-15T20:30:16.399Z,77.59
2023-03-15T20:32:44.955Z,77.35
2023-03-15T20:35:14.052Z,77.47
2023-03-15T20:37:43.125Z,77.46
2023-03-15T20:40:13.478Z,77.65
2023-03-15T20:42:42.591Z,77.58
2023-03-15T20:45:12.581Z,77.92
2023-03-15T20:47:41.511Z,77.76
2023-03-15T20:50:11.544Z,77.77
2023-03-15T20:52:41.003Z,77.84
2023-03-15T20:55:10.814Z,77.53
2023-03-15T20:57:41.460Z,77.75
2023-03-15T21:00:20.824Z,77.78
2023-03-15T21:02:49.278Z,77.79
2023-03-15T21:05:17.951Z,77.82
2023-03-15T21:07:46.318Z,77.75
2023-03-15T21:10:14.907Z,78.03
2023-03-15T21:12:44.258Z,78.15
2023-03-15T21:15:17.666Z,78.18
2023-03-15T21:17:49.017Z,78.17
2023-03-15T21:20:18.252Z,78.14
2023-03-15T21:22:46.612Z,78.12
2023-03-15T21:25:14.892Z,78.08
2023-03-15T21:27:43.677Z,78.13
2023-03-15T21:30:14.112Z,77.89
2023-03-15T21:32:43.268Z,77.76
2023-03-15T21:35:12.694Z,77.98
2023-03-15T21:37:40.768Z,77.62
2023-03-15T21:40:11.275Z,77.76
2023-03-15T21:42:39.986Z,77.72
2023-03-15T21:45:09.398Z,77.81
2023-03-15T21:47:37.648Z,78.08
2023-03-15T21:50:06.508Z,78.35
2023-03-15T21:52:34.603Z,78.34
2023-03-15T21:55:02.778Z,78.58
2023-03-15T21:57:33.942Z,78.76
2023-03-15T22:00:02.436Z,78.75
2023-03-15T22:02:39.903Z,78.70
2023-03-15T22:05:09.814Z,78.55
2023-03-15T22:07:39.191Z,78.69
2023-03-15T22:10:09.918Z,78.53
2023-03-15T22:12:38.195Z,78.68
2023-03-15T22:15:07.898Z,78.67
2023-03-15T22:17:36.499Z,78.44
2023-03-15T22:20:16.818Z,78.73
2023-03-15T22:22:45.892Z,78.64
2023-03-15T22:25:14.457Z,78.97
2023-03-15T22:27:42.810Z,79.29
2023-03-15T22:30:17.902Z,79.23
2023-03-15T22:32:46.116Z,79.46
2023-03-15T22:35:16.339Z,79.85
2023-03-15T22:37:44.632Z,79.88
2023-03-15T22:40:16.677Z,79.75
2023-03-15T22:42:47.052Z,79.88
2023-03-15T22:45:15.423Z,79.75
2023-03-15T22:47:43.559Z,79.75
2023-03-15T22:50:13.576Z,79.78
2023-03-15T22:52:41.894Z,79.60
2023-03-15T22:55:10.933Z,79.58
2023-03-15T22:57:39.216Z,79.53
2023-03-15T23:00:16.345Z,79.52
2023-03-15T23:02:44.977Z,79.72
2023-03-15T23:05:13.782Z,79.46
2023-03-15T23:07:42.160Z,79.45
2023-03-15T23:10:11.642Z,79.25
2023-03-15T23:12:39.824Z,79.34
2023-03-15T23:15:09.128Z,79.22
2023-03-15T23:17:37.504Z,79.32
2023-03-15T23:20:07.527Z,79.37
2023-03-15T23:22:35.889Z,79.30
2023-03-15T23:25:04.578Z,79.32
2023-03-15T23:27:32.756Z,79.17
2023-03-15T23:30:01.142Z,79.08
2023-03-15T23:32:29.623Z,79.29
2023-03-15T23:34:57.978Z,79.26
2023-03-15T23:37:26.150Z,79.41
2023-03-15T23:39:54.529Z,79.37
2023-03-15T23:42:26.057Z,79.32
2023-03-15T23:44:55.610Z,79.43
2023-03-15T23:47:25.086Z,79.42
2023-03-15T23:49:53.364Z,79.54
2023-03-15T23:52:25.469Z,79.44
2023-03-15T23:54:54.242Z,79.54
2023-03-15T23:57:22.902Z,79.64
2023-03-15T23:59:51.290Z,79.51
